sensor_id;sensor_type;location;lat;lon;timestamp;pressure;altitude;pressure_sealevel;temperature;humidity
40245;BME280;25963;42.694;23.600;2023-02-28T00:02:19;95671.53;;;4.87;100.00
40245;BME280;25963;42.694;23.600;2023-02-28T00:04:45;95670.06;;;4.84;100.00
40245;BME280;25963;42.694;23.600;2023-02-28T00:07:11;95686.03;;;4.97;100.00
40245;BME280;25963;42.694;23.600;2023-02-28T00:09:36;95678.41;;;4.88;100.00
40245;BME280;25963;42.694;23.600;2023-02-28T00:12:02;95682.28;;;5.00;100.00
40245;BME280;25963;42.694;23.600;2023-02-28T00:14:35;95690.59;;;5.03;100.00
40245;BME280;25963;42.694;23.600;2023-02-28T00:17:01;95697.72;;;5.18;100.00
40245;BME280;25963;42.694;23.600;2023-02-28T00:19:26;95694.34;;;5.09;100.00
40245;BME280;25963;42.694;23.600;2023-02-28T00:21:52;95698.22;;;5.13;100.00
40245;BME280;25963;42.694;23.600;2023-02-28T00:24:17;95687.56;;;5.23;100.00
40245;BME280;25963;42.694;23.600;2023-02-28T00:26:42;95696.88;;;5.17;100.00
40245;BME280;25963;42.694;23.600;2023-02-28T00:29:08;95690.59;;;5.03;100.00
40245;BME280;25963;42.694;23.600;2023-02-28T00:31:33;95703.31;;;5.15;100.00
40245;BME280;25963;42.694;23.600;2023-02-28T00:33:59;95697.34;;;5.29;100.00
40245;BME280;25963;42.694;23.600;2023-02-28T00:36:24;95680.69;;;5.22;100.00
40245;BME280;25963;42.694;23.600;2023-02-28T00:38:49;95670.22;;;5.30;100.00
40245;BME280;25963;42.694;23.600;2023-02-28T00:41:15;95674.63;;;5.30;100.00
40245;BME280;25963;42.694;23.600;2023-02-28T00:43:40;95681.13;;;5.34;100.00
40245;BME280;25963;42.694;23.600;2023-02-28T00:46:06;95698.25;;;5.44;100.00
40245;BME280;25963;42.694;23.600;2023-02-28T00:48:32;95687.59;;;5.46;100.00
40245;BME280;25963;42.694;23.600;2023-02-28T00:50:58;95678.88;;;5.31;100.00
40245;BME280;25963;42.694;23.600;2023-02-28T00:53:23;95683.84;;;5.48;100.00
40245;BME280;25963;42.694;23.600;2023-02-28T00:55:50;95674.97;;;5.49;100.00
40245;BME280;25963;42.694;23.600;2023-02-28T00:58:15;95672.03;;;5.53;100.00
40245;BME280;25963;42.694;23.600;2023-02-28T01:00:41;95653.47;;;5.39;100.00
40245;BME280;25963;42.694;23.600;2023-02-28T01:03:07;95646.59;;;5.38;100.00
40245;BME280;25963;42.694;23.600;2023-02-28T01:05:32;95647.97;;;5.26;100.00
40245;BME280;25963;42.694;23.600;2023-02-28T01:07:57;95646.34;;;5.25;100.00
40245;BME280;25963;42.694;23.600;2023-02-28T01:10:23;95641.81;;;5.19;100.00
40245;BME280;25963;42.694;23.600;2023-02-28T01:12:49;95650.66;;;5.18;100.00
40245;BME280;25963;42.694;23.600;2023-02-28T01:15:15;95657.16;;;5.22;100.00
40245;BME280;25963;42.694;23.600;2023-02-28T01:17:40;95657.75;;;5.32;100.00
40245;BME280;25963;42.694;23.600;2023-02-28T01:20:06;95672.25;;;5.43;100.00
40245;BME280;25963;42.694;23.600;2023-02-28T01:22:32;95658.72;;;5.39;100.00
40245;BME280;25963;42.694;23.600;2023-02-28T01:24:57;95663.19;;;5.54;100.00
40245;BME280;25963;42.694;23.600;2023-02-28T01:27:22;95668.44;;;5.54;100.00
40245;BME280;25963;42.694;23.600;2023-02-28T01:29:48;95659.75;;;5.53;100.00
40245;BME280;25963;42.694;23.600;2023-02-28T01:32:13;95652.91;;;5.52;100.00
40245;BME280;25963;42.694;23.600;2023-02-28T01:34:39;95653.13;;;5.42;100.00
40245;BME280;25963;42.694;23.600;2023-02-28T01:37:04;95651.72;;;5.32;100.00
40245;BME280;25963;42.694;23.600;2023-02-28T01:39:30;95665.91;;;5.37;100.00
40245;BME280;25963;42.694;23.600;2023-02-28T01:41:55;95652.50;;;5.32;100.00
40245;BME280;25963;42.694;23.600;2023-02-28T01:47:20;95661.19;;;5.33;100.00
40245;BME280;25963;42.694;23.600;2023-02-28T01:49:46;95661.06;;;5.26;100.00
40245;BME280;25963;42.694;23.600;2023-02-28T01:52:12;95663.03;;;5.24;100.00
40245;BME280;25963;42.694;23.600;2023-02-28T01:54:47;95669.31;;;5.15;100.00
40245;BME280;25963;42.694;23.600;2023-02-28T01:57:17;95668.31;;;5.16;100.00
40245;BME280;25963;42.694;23.600;2023-02-28T02:02:20;95670.72;;;4.86;100.00
40245;BME280;25963;42.694;23.600;2023-02-28T02:04:55;95667.63;;;4.83;100.00
40245;BME280;25963;42.694;23.600;2023-02-28T02:07:23;95678.75;;;4.85;100.00
40245;BME280;25963;42.694;23.600;2023-02-28T02:09:49;95680.19;;;4.87;100.00
40245;BME280;25963;42.694;23.600;2023-02-28T02:12:49;95672.22;;;4.72;100.00
40245;BME280;25963;42.694;23.600;2023-02-28T02:15:26;95686.75;;;4.75;100.00
40245;BME280;25963;42.694;23.600;2023-02-28T02:17:57;95687.78;;;4.57;100.00
40245;BME280;25963;42.694;23.600;2023-02-28T02:20:50;95682.88;;;4.63;100.00
40245;BME280;25963;42.694;23.600;2023-02-28T02:28:42;95687.81;;;4.49;100.00
40245;BME280;25963;42.694;23.600;2023-02-28T02:37:15;95689.78;;;4.39;100.00
40245;BME280;25963;42.694;23.600;2023-02-28T02:43:01;95693.72;;;4.35;100.00
40245;BME280;25963;42.694;23.600;2023-02-28T02:47:33;95697.28;;;4.42;100.00
40245;BME280;25963;42.694;23.600;2023-02-28T02:50:04;95708.53;;;4.43;100.00
40245;BME280;25963;42.694;23.600;2023-02-28T02:52:37;95701.56;;;4.35;100.00
40245;BME280;25963;42.694;23.600;2023-02-28T02:55:05;95696.00;;;4.30;100.00
40245;BME280;25963;42.694;23.600;2023-02-28T02:57:42;95699.28;;;4.40;100.00
40245;BME280;25963;42.694;23.600;2023-02-28T03:00:12;95703.22;;;4.28;100.00
40245;BME280;25963;42.694;23.600;2023-02-28T03:02:38;95702.69;;;4.24;100.00
40245;BME280;25963;42.694;23.600;2023-02-28T03:05:14;95713.00;;;4.26;100.00
40245;BME280;25963;42.694;23.600;2023-02-28T03:07:42;95720.16;;;4.24;100.00
40245;BME280;25963;42.694;23.600;2023-02-28T03:16:03;95729.97;;;4.14;100.00
40245;BME280;25963;42.694;23.600;2023-02-28T03:18:56;95733.88;;;4.09;100.00
40245;BME280;25963;42.694;23.600;2023-02-28T03:27:42;95743.50;;;4.09;100.00
40245;BME280;25963;42.694;23.600;2023-02-28T03:30:25;95739.09;;;4.09;100.00
40245;BME280;25963;42.694;23.600;2023-02-28T03:33:13;95754.13;;;4.07;100.00
40245;BME280;25963;42.694;23.600;2023-02-28T03:35:45;95754.28;;;4.06;100.00
40245;BME280;25963;42.694;23.600;2023-02-28T03:38:29;95769.13;;;4.05;100.00
40245;BME280;25963;42.694;23.600;2023-02-28T03:43:41;95768.44;;;3.79;100.00
40245;BME280;25963;42.694;23.600;2023-02-28T03:46:11;95762.75;;;3.83;100.00
40245;BME280;25963;42.694;23.600;2023-02-28T03:48:42;95768.25;;;3.72;100.00
40245;BME280;25963;42.694;23.600;2023-02-28T03:51:13;95774.66;;;3.86;100.00
40245;BME280;25963;42.694;23.600;2023-02-28T03:53:48;95769.75;;;3.83;100.00
40245;BME280;25963;42.694;23.600;2023-02-28T03:56:26;95766.63;;;3.71;100.00
40245;BME280;25963;42.694;23.600;2023-02-28T03:59:20;95772.28;;;3.58;100.00
40245;BME280;25963;42.694;23.600;2023-02-28T04:01:48;95764.78;;;3.55;100.00
40245;BME280;25963;42.694;23.600;2023-02-28T04:04:15;95763.66;;;3.58;100.00
40245;BME280;25963;42.694;23.600;2023-02-28T04:06:43;95761.50;;;3.45;100.00
40245;BME280;25963;42.694;23.600;2023-02-28T04:09:10;95766.09;;;3.51;100.00
40245;BME280;25963;42.694;23.600;2023-02-28T04:14:10;95753.56;;;3.63;100.00
40245;BME280;25963;42.694;23.600;2023-02-28T04:16:38;95759.25;;;3.58;100.00
40245;BME280;25963;42.694;23.600;2023-02-28T04:19:06;95769.06;;;3.73;100.00
40245;BME280;25963;42.694;23.600;2023-02-28T04:23:58;95769.03;;;3.56;100.00
40245;BME280;25963;42.694;23.600;2023-02-28T04:26:36;95771.66;;;3.64;100.00
40245;BME280;25963;42.694;23.600;2023-02-28T04:29:04;95767.78;;;3.69;100.00
40245;BME280;25963;42.694;23.600;2023-02-28T04:31:29;95762.41;;;3.78;100.00
40245;BME280;25963;42.694;23.600;2023-02-28T04:33:55;95760.28;;;3.82;100.00
40245;BME280;25963;42.694;23.600;2023-02-28T04:36:21;95767.28;;;3.81;100.00
40245;BME280;25963;42.694;23.600;2023-02-28T04:38:48;95763.19;;;3.71;100.00
40245;BME280;25963;42.694;23.600;2023-02-28T04:41:14;95773.47;;;3.72;100.00
40245;BME280;25963;42.694;23.600;2023-02-28T04:43:40;95772.38;;;3.83;100.00
40245;BME280;25963;42.694;23.600;2023-02-28T04:46:06;95771.72;;;3.89;100.00
40245;BME280;25963;42.694;23.600;2023-02-28T04:48:34;95779.22;;;4.00;100.00
40245;BME280;25963;42.694;23.600;2023-02-28T04:51:05;95783.66;;;4.08;100.00
40245;BME280;25963;42.694;23.600;2023-02-28T04:53:31;95775.97;;;4.15;100.00
40245;BME280;25963;42.694;23.600;2023-02-28T04:55:57;95774.03;;;4.08;100.00
40245;BME280;25963;42.694;23.600;2023-02-28T04:58:23;95773.22;;;4.16;100.00
40245;BME280;25963;42.694;23.600;2023-02-28T05:00:52;95782.84;;;4.16;100.00
40245;BME280;25963;42.694;23.600;2023-02-28T05:03:18;95768.31;;;4.21;100.00
40245;BME280;25963;42.694;23.600;2023-02-28T05:05:46;95775.00;;;4.24;100.00
40245;BME280;25963;42.694;23.600;2023-02-28T05:08:11;95775.69;;;4.34;100.00
40245;BME280;25963;42.694;23.600;2023-02-28T05:10:37;95778.28;;;4.34;100.00
40245;BME280;25963;42.694;23.600;2023-02-28T05:13:02;95776.63;;;4.33;100.00
40245;BME280;25963;42.694;23.600;2023-02-28T05:15:28;95780.56;;;4.37;100.00
40245;BME280;25963;42.694;23.600;2023-02-28T05:17:53;95783.69;;;4.41;100.00
40245;BME280;25963;42.694;23.600;2023-02-28T05:20:19;95779.91;;;4.43;100.00
40245;BME280;25963;42.694;23.600;2023-02-28T05:22:46;95788.06;;;4.48;100.00
40245;BME280;25963;42.694;23.600;2023-02-28T05:25:19;95799.31;;;4.57;100.00
40245;BME280;25963;42.694;23.600;2023-02-28T05:27:45;95796.91;;;4.55;100.00
40245;BME280;25963;42.694;23.600;2023-02-28T05:30:11;95804.75;;;4.64;100.00
40245;BME280;25963;42.694;23.600;2023-02-28T05:32:37;95806.03;;;4.51;100.00
40245;BME280;25963;42.694;23.600;2023-02-28T05:35:04;95800.47;;;4.63;100.00
40245;BME280;25963;42.694;23.600;2023-02-28T05:37:30;95807.66;;;4.69;100.00
40245;BME280;25963;42.694;23.600;2023-02-28T05:39:55;95806.84;;;4.60;100.00
40245;BME280;25963;42.694;23.600;2023-02-28T05:42:20;95808.78;;;4.66;100.00
40245;BME280;25963;42.694;23.600;2023-02-28T05:44:46;95817.44;;;4.75;100.00
40245;BME280;25963;42.694;23.600;2023-02-28T05:47:11;95822.69;;;4.83;100.00
40245;BME280;25963;42.694;23.600;2023-02-28T05:49:40;95816.13;;;4.87;100.00
40245;BME280;25963;42.694;23.600;2023-02-28T05:52:06;95815.47;;;4.93;100.00
40245;BME280;25963;42.694;23.600;2023-02-28T05:54:31;95814.47;;;5.02;100.00
40245;BME280;25963;42.694;23.600;2023-02-28T05:56:57;95823.28;;;5.01;100.00
40245;BME280;25963;42.694;23.600;2023-02-28T05:59:22;95815.09;;;5.13;100.00
40245;BME280;25963;42.694;23.600;2023-02-28T06:01:48;95825.91;;;5.10;100.00
40245;BME280;25963;42.694;23.600;2023-02-28T06:04:14;95822.16;;;5.04;100.00
40245;BME280;25963;42.694;23.600;2023-02-28T06:06:44;95817.41;;;5.08;100.00
40245;BME280;25963;42.694;23.600;2023-02-28T06:09:10;95823.94;;;5.12;100.00
40245;BME280;25963;42.694;23.600;2023-02-28T06:11:35;95828.16;;;5.21;100.00
40245;BME280;25963;42.694;23.600;2023-02-28T06:14:01;95832.41;;;5.30;100.00
40245;BME280;25963;42.694;23.600;2023-02-28T06:16:28;95826.34;;;5.30;100.00
40245;BME280;25963;42.694;23.600;2023-02-28T06:18:56;95840.53;;;5.35;100.00
40245;BME280;25963;42.694;23.600;2023-02-28T06:21:23;95835.31;;;5.35;100.00
40245;BME280;25963;42.694;23.600;2023-02-28T06:23:49;95840.69;;;5.42;100.00
40245;BME280;25963;42.694;23.600;2023-02-28T06:26:14;95838.56;;;5.37;100.00
40245;BME280;25963;42.694;23.600;2023-02-28T06:28:40;95833.69;;;5.34;100.00
40245;BME280;25963;42.694;23.600;2023-02-28T06:31:10;95834.63;;;5.41;100.00
40245;BME280;25963;42.694;23.600;2023-02-28T06:33:37;95845.72;;;5.52;100.00
40245;BME280;25963;42.694;23.600;2023-02-28T06:36:03;95846.06;;;5.57;100.00
40245;BME280;25963;42.694;23.600;2023-02-28T06:38:29;95849.03;;;5.45;100.00
40245;BME280;25963;42.694;23.600;2023-02-28T06:40:56;95840.66;;;5.50;100.00
40245;BME280;25963;42.694;23.600;2023-02-28T06:43:23;95850.28;;;5.58;100.00
40245;BME280;25963;42.694;23.600;2023-02-28T06:45:49;95856.34;;;5.58;100.00
40245;BME280;25963;42.694;23.600;2023-02-28T06:48:14;95852.38;;;5.62;100.00
40245;BME280;25963;42.694;23.600;2023-02-28T06:50:40;95857.44;;;5.72;100.00
40245;BME280;25963;42.694;23.600;2023-02-28T06:53:05;95843.31;;;5.81;100.00
40245;BME280;25963;42.694;23.600;2023-02-28T06:55:31;95847.75;;;5.81;100.00
40245;BME280;25963;42.694;23.600;2023-02-28T06:57:57;95848.53;;;5.89;100.00
40245;BME280;25963;42.694;23.600;2023-02-28T07:00:23;95847.88;;;5.96;100.00
40245;BME280;25963;42.694;23.600;2023-02-28T07:02:48;95839.34;;;6.02;100.00
40245;BME280;25963;42.694;23.600;2023-02-28T07:05:14;95844.34;;;6.11;100.00
40245;BME280;25963;42.694;23.600;2023-02-28T07:07:39;95833.63;;;6.21;100.00
40245;BME280;25963;42.694;23.600;2023-02-28T07:10:11;95828.00;;;6.32;100.00
40245;BME280;25963;42.694;23.600;2023-02-28T07:12:38;95830.75;;;6.62;100.00
40245;BME280;25963;42.694;23.600;2023-02-28T07:15:05;95827.00;;;6.79;100.00
40245;BME280;25963;42.694;23.600;2023-02-28T07:17:30;95838.34;;;6.95;100.00
40245;BME280;25963;42.694;23.600;2023-02-28T07:19:56;95834.63;;;7.04;100.00
40245;BME280;25963;42.694;23.600;2023-02-28T07:22:21;95832.91;;;7.11;100.00
40245;BME280;25963;42.694;23.600;2023-02-28T07:24:47;95833.91;;;7.10;100.00
40245;BME280;25963;42.694;23.600;2023-02-28T07:27:13;95835.81;;;7.16;100.00
40245;BME280;25963;42.694;23.600;2023-02-28T07:29:48;95831.03;;;7.20;100.00
40245;BME280;25963;42.694;23.600;2023-02-28T07:32:14;95834.38;;;7.28;100.00
40245;BME280;25963;42.694;23.600;2023-02-28T07:34:39;95838.28;;;7.32;100.00
40245;BME280;25963;42.694;23.600;2023-02-28T07:37:05;95847.50;;;7.28;100.00
40245;BME280;25963;42.694;23.600;2023-02-28T07:39:30;95837.53;;;7.24;100.00
40245;BME280;25963;42.694;23.600;2023-02-28T07:41:56;95842.47;;;7.27;100.00
40245;BME280;25963;42.694;23.600;2023-02-28T07:44:21;95842.09;;;7.30;100.00
40245;BME280;25963;42.694;23.600;2023-02-28T07:46:47;95839.19;;;7.40;100.00
40245;BME280;25963;42.694;23.600;2023-02-28T07:49:12;95841.25;;;7.29;100.00
40245;BME280;25963;42.694;23.600;2023-02-28T07:51:38;95843.25;;;7.27;100.00
40245;BME280;25963;42.694;23.600;2023-02-28T07:54:06;95836.28;;;7.35;100.00
40245;BME280;25963;42.694;23.600;2023-02-28T07:56:32;95834.84;;;7.47;100.00
40245;BME280;25963;42.694;23.600;2023-02-28T07:59:01;95835.75;;;7.54;100.00
40245;BME280;25963;42.694;23.600;2023-02-28T08:01:26;95835.28;;;7.65;100.00
40245;BME280;25963;42.694;23.600;2023-02-28T08:03:52;95841.19;;;7.67;100.00
40245;BME280;25963;42.694;23.600;2023-02-28T08:06:21;95834.47;;;7.65;100.00
40245;BME280;25963;42.694;23.600;2023-02-28T08:08:48;95837.91;;;7.65;100.00
40245;BME280;25963;42.694;23.600;2023-02-28T08:11:14;95835.94;;;7.52;100.00
40245;BME280;25963;42.694;23.600;2023-02-28T08:13:39;95845.53;;;7.75;100.00
40245;BME280;25963;42.694;23.600;2023-02-28T08:16:05;95845.53;;;7.75;100.00
40245;BME280;25963;42.694;23.600;2023-02-28T08:18:32;95853.13;;;7.85;100.00
40245;BME280;25963;42.694;23.600;2023-02-28T08:20:57;95846.13;;;7.92;100.00
40245;BME280;25963;42.694;23.600;2023-02-28T08:23:24;95842.72;;;7.76;100.00
40245;BME280;25963;42.694;23.600;2023-02-28T08:25:56;95841.25;;;7.89;100.00
40245;BME280;25963;42.694;23.600;2023-02-28T08:28:22;95849.03;;;7.97;100.00
40245;BME280;25963;42.694;23.600;2023-02-28T08:30:47;95847.78;;;7.93;100.00
40245;BME280;25963;42.694;23.600;2023-02-28T08:33:13;95845.28;;;8.06;100.00
40245;BME280;25963;42.694;23.600;2023-02-28T08:35:38;95840.75;;;8.15;100.00
40245;BME280;25963;42.694;23.600;2023-02-28T08:38:03;95838.63;;;8.25;100.00
40245;BME280;25963;42.694;23.600;2023-02-28T08:40:29;95841.13;;;8.33;100.00
40245;BME280;25963;42.694;23.600;2023-02-28T08:42:54;95833.44;;;8.47;100.00
40245;BME280;25963;42.694;23.600;2023-02-28T08:45:20;95847.88;;;8.57;100.00
40245;BME280;25963;42.694;23.600;2023-02-28T08:47:45;95846.50;;;8.61;100.00
40245;BME280;25963;42.694;23.600;2023-02-28T08:50:11;95851.75;;;8.61;100.00
40245;BME280;25963;42.694;23.600;2023-02-28T08:52:38;95851.69;;;8.76;100.00
40245;BME280;25963;42.694;23.600;2023-02-28T08:55:04;95855.91;;;8.71;100.00
40245;BME280;25963;42.694;23.600;2023-02-28T08:57:29;95843.25;;;8.59;100.00
40245;BME280;25963;42.694;23.600;2023-02-28T08:59:55;95855.97;;;8.56;100.00
40245;BME280;25963;42.694;23.600;2023-02-28T09:02:20;95855.66;;;8.44;100.00
40245;BME280;25963;42.694;23.600;2023-02-28T09:04:45;95855.06;;;8.49;100.00
40245;BME280;25963;42.694;23.600;2023-02-28T09:07:11;95840.88;;;8.28;100.00
40245;BME280;25963;42.694;23.600;2023-02-28T09:09:37;95856.75;;;8.35;100.00
40245;BME280;25963;42.694;23.600;2023-02-28T09:12:03;95844.88;;;8.39;100.00
40245;BME280;25963;42.694;23.600;2023-02-28T09:14:28;95855.75;;;8.57;100.00
40245;BME280;25963;42.694;23.600;2023-02-28T09:16:54;95851.25;;;8.51;100.00
40245;BME280;25963;42.694;23.600;2023-02-28T09:19:20;95853.88;;;8.73;100.00
40245;BME280;25963;42.694;23.600;2023-02-28T09:21:45;95852.25;;;8.93;100.00
40245;BME280;25963;42.694;23.600;2023-02-28T09:24:11;95855.25;;;8.90;100.00
40245;BME280;25963;42.694;23.600;2023-02-28T09:26:39;95853.09;;;9.00;100.00
40245;BME280;25963;42.694;23.600;2023-02-28T09:29:05;95856.22;;;9.10;100.00
40245;BME280;25963;42.694;23.600;2023-02-28T09:31:31;95860.19;;;9.00;100.00
40245;BME280;25963;42.694;23.600;2023-02-28T09:33:57;95856.13;;;8.97;100.00
40245;BME280;25963;42.694;23.600;2023-02-28T09:36:25;95859.03;;;9.09;100.00
40245;BME280;25963;42.694;23.600;2023-02-28T09:38:51;95851.06;;;8.96;100.00
40245;BME280;25963;42.694;23.600;2023-02-28T09:41:24;95854.81;;;8.86;100.00
40245;BME280;25963;42.694;23.600;2023-02-28T09:43:55;95855.81;;;9.07;100.00
40245;BME280;25963;42.694;23.600;2023-02-28T09:46:41;95845.91;;;9.37;100.00
40245;BME280;25963;42.694;23.600;2023-02-28T09:49:14;95848.97;;;9.47;100.00
40245;BME280;25963;42.694;23.600;2023-02-28T09:54:15;95846.66;;;9.31;100.00
40245;BME280;25963;42.694;23.600;2023-02-28T09:56:45;95853.63;;;9.45;100.00
40245;BME280;25963;42.694;23.600;2023-02-28T10:01:45;95853.81;;;9.44;100.00
40245;BME280;25963;42.694;23.600;2023-02-28T10:07:03;95845.38;;;9.48;100.00
40245;BME280;25963;42.694;23.600;2023-02-28T10:09:32;95830.25;;;9.64;100.00
40245;BME280;25963;42.694;23.600;2023-02-28T10:12:05;95837.31;;;9.63;100.00
40245;BME280;25963;42.694;23.600;2023-02-28T10:14:33;95838.75;;;9.66;100.00
40245;BME280;25963;42.694;23.600;2023-02-28T10:17:10;95823.47;;;9.89;100.00
40245;BME280;25963;42.694;23.600;2023-02-28T10:19:54;95821.44;;;9.85;100.00
40245;BME280;25963;42.694;23.600;2023-02-28T10:22:26;95818.53;;;9.73;100.00
40245;BME280;25963;42.694;23.600;2023-02-28T10:24:55;95819.19;;;9.81;100.00
40245;BME280;25963;42.694;23.600;2023-02-28T10:27:29;95809.47;;;9.89;100.00
40245;BME280;25963;42.694;23.600;2023-02-28T10:29:58;95813.97;;;10.01;100.00
40245;BME280;25963;42.694;23.600;2023-02-28T10:32:30;95812.94;;;9.89;100.00
40245;BME280;25963;42.694;23.600;2023-02-28T10:35:00;95811.41;;;10.21;100.00
40245;BME280;25963;42.694;23.600;2023-02-28T10:37:30;95809.72;;;10.00;100.00
40245;BME280;25963;42.694;23.600;2023-02-28T10:39:57;95805.34;;;10.21;100.00
40245;BME280;25963;42.694;23.600;2023-02-28T10:42:28;95810.66;;;10.41;100.00
40245;BME280;25963;42.694;23.600;2023-02-28T10:45:15;95810.81;;;10.26;100.00
40245;BME280;25963;42.694;23.600;2023-02-28T10:47:56;95806.81;;;10.37;100.00
40245;BME280;25963;42.694;23.600;2023-02-28T10:55:58;95789.63;;;10.74;100.00
40245;BME280;25963;42.694;23.600;2023-02-28T10:58:28;95788.59;;;10.82;100.00
40245;BME280;25963;42.694;23.600;2023-02-28T11:00:54;95789.00;;;10.85;100.00
40245;BME280;25963;42.694;23.600;2023-02-28T11:03:33;95787.16;;;10.86;100.00
40245;BME280;25963;42.694;23.600;2023-02-28T11:06:05;95777.44;;;10.73;100.00
40245;BME280;25963;42.694;23.600;2023-02-28T11:08:31;95771.34;;;10.72;100.00
40245;BME280;25963;42.694;23.600;2023-02-28T11:11:04;95779.06;;;10.81;100.00
40245;BME280;25963;42.694;23.600;2023-02-28T11:13:35;95775.38;;;10.48;100.00
40245;BME280;25963;42.694;23.600;2023-02-28T11:16:06;95772.56;;;10.57;100.00
40245;BME280;25963;42.694;23.600;2023-02-28T11:18:48;95772.56;;;10.57;100.00
40245;BME280;25963;42.694;23.600;2023-02-28T11:21:25;95769.31;;;10.74;100.00
40245;BME280;25963;42.694;23.600;2023-02-28T11:24:01;95760.38;;;10.62;100.00
40245;BME280;25963;42.694;23.600;2023-02-28T11:26:44;95757.94;;;10.54;100.00
40245;BME280;25963;42.694;23.600;2023-02-28T11:32:11;95747.41;;;10.47;100.00
40245;BME280;25963;42.694;23.600;2023-02-28T11:34:39;95757.31;;;10.59;100.00
40245;BME280;25963;42.694;23.600;2023-02-28T11:37:11;95753.50;;;10.68;100.00
40245;BME280;25963;42.694;23.600;2023-02-28T11:39:37;95751.84;;;10.67;100.00
40245;BME280;25963;42.694;23.600;2023-02-28T11:48:25;95753.25;;;10.96;100.00
40245;BME280;25963;42.694;23.600;2023-02-28T11:54:08;95739.81;;;11.31;100.00
40245;BME280;25963;42.694;23.600;2023-02-28T11:56:55;95745.66;;;11.39;100.00
40245;BME280;25963;42.694;23.600;2023-02-28T12:02:26;95750.94;;;11.46;100.00
40245;BME280;25963;42.694;23.600;2023-02-28T12:07:50;95744.44;;;11.35;100.00
40245;BME280;25963;42.694;23.600;2023-02-28T12:26:44;95750.94;;;11.46;100.00
40245;BME280;25963;42.694;23.600;2023-02-28T12:29:26;95744.66;;;11.40;100.00
40245;BME280;25963;42.694;23.600;2023-02-28T12:32:06;95747.31;;;11.34;100.00
40245;BME280;25963;42.694;23.600;2023-02-28T12:34:42;95738.38;;;11.22;100.00
40245;BME280;25963;42.694;23.600;2023-02-28T12:37:25;95732.63;;;11.45;100.00
40245;BME280;25963;42.694;23.600;2023-02-28T12:40:00;95732.69;;;11.31;100.00
40245;BME280;25963;42.694;23.600;2023-02-28T12:42:33;95733.09;;;11.28;100.00
40245;BME280;25963;42.694;23.600;2023-02-28T12:45:06;95724.59;;;11.13;100.00
40245;BME280;25963;42.694;23.600;2023-02-28T12:47:34;95727.06;;;10.88;100.00
40245;BME280;25963;42.694;23.600;2023-02-28T12:50:04;95724.22;;;10.83;100.00
40245;BME280;25963;42.694;23.600;2023-02-28T12:55:26;95719.97;;;10.62;100.00
40245;BME280;25963;42.694;23.600;2023-02-28T13:00:24;95714.50;;;10.77;100.00
40245;BME280;25963;42.694;23.600;2023-02-28T13:11:01;95716.13;;;10.84;100.00
40245;BME280;25963;42.694;23.600;2023-02-28T13:13:28;95710.63;;;10.79;100.00
40245;BME280;25963;42.694;23.600;2023-02-28T13:20:55;95718.56;;;10.39;100.00
40245;BME280;25963;42.694;23.600;2023-02-28T13:23:59;95703.50;;;10.06;100.00
40245;BME280;25963;42.694;23.600;2023-02-28T13:29:02;95701.84;;;9.99;100.00
40245;BME280;25963;42.694;23.600;2023-02-28T13:31:29;95702.28;;;10.09;100.00
40245;BME280;25963;42.694;23.600;2023-02-28T13:36:28;95711.16;;;9.88;100.00
40245;BME280;25963;42.694;23.600;2023-02-28T13:47:43;95717.56;;;9.66;100.00
40245;BME280;25963;42.694;23.600;2023-02-28T13:58:16;95688.84;;;9.84;100.00
40245;BME280;25963;42.694;23.600;2023-02-28T14:06:33;95690.84;;;9.69;100.00
40245;BME280;25963;42.694;23.600;2023-02-28T14:09:15;95696.88;;;9.49;100.00
40245;BME280;25963;42.694;23.600;2023-02-28T14:11:46;95706.50;;;9.29;100.00
40245;BME280;25963;42.694;23.600;2023-02-28T14:17:06;95704.50;;;9.31;100.00
40245;BME280;25963;42.694;23.600;2023-02-28T14:19:39;95710.47;;;9.11;100.00
40245;BME280;25963;42.694;23.600;2023-02-28T14:22:41;95717.41;;;8.91;100.00
40245;BME280;25963;42.694;23.600;2023-02-28T14:28:43;95719.91;;;8.99;100.00
40245;BME280;25963;42.694;23.600;2023-02-28T14:31:11;95717.31;;;9.06;100.00
40245;BME280;25963;42.694;23.600;2023-02-28T14:36:32;95714.75;;;8.84;100.00
40245;BME280;25963;42.694;23.600;2023-02-28T14:38:59;95726.53;;;8.88;100.00
40245;BME280;25963;42.694;23.600;2023-02-28T14:41:34;95730.50;;;8.78;100.00
40245;BME280;25963;42.694;23.600;2023-02-28T14:44:22;95734.28;;;8.68;100.00
40245;BME280;25963;42.694;23.600;2023-02-28T14:46:56;95730.44;;;8.43;100.00
40245;BME280;25963;42.694;23.600;2023-02-28T14:49:48;95721.59;;;8.51;100.00
40245;BME280;25963;42.694;23.600;2023-02-28T14:52:23;95726.28;;;8.55;100.00
40245;BME280;25963;42.694;23.600;2023-02-28T14:54:54;95712.22;;;8.41;100.00
40245;BME280;25963;42.694;23.600;2023-02-28T14:57:31;95719.34;;;8.26;100.00
40245;BME280;25963;42.694;23.600;2023-02-28T15:02:34;95726.44;;;8.26;100.00
40245;BME280;25963;42.694;23.600;2023-02-28T15:05:10;95732.16;;;8.36;100.00
40245;BME280;25963;42.694;23.600;2023-02-28T15:07:42;95726.97;;;8.21;100.00
40245;BME280;25963;42.694;23.600;2023-02-28T15:10:21;95720.53;;;8.23;100.00
40245;BME280;25963;42.694;23.600;2023-02-28T15:12:53;95732.78;;;8.16;100.00
40245;BME280;25963;42.694;23.600;2023-02-28T15:15:22;95726.66;;;8.09;100.00
40245;BME280;25963;42.694;23.600;2023-02-28T15:17:52;95716.09;;;8.03;100.00
40245;BME280;25963;42.694;23.600;2023-02-28T15:20:21;95721.03;;;7.91;100.00
40245;BME280;25963;42.694;23.600;2023-02-28T15:22:49;95724.97;;;8.01;100.00
40245;BME280;25963;42.694;23.600;2023-02-28T15:25:19;95735.75;;;8.07;100.00
40245;BME280;25963;42.694;23.600;2023-02-28T15:27:49;95727.22;;;7.83;100.00